createdAt,value
2018-05-06T00:00:58.407Z,80.04
2018-05-06T00:01:58.345Z,79.47
2018-05-06T00:02:58.286Z,79.75
2018-05-06T00:03:58.223Z,79.75
2018-05-06T00:04:58.160Z,79.75
2018-05-06T00:05:58.099Z,79.85
2018-05-06T00:06:58.040Z,79.95
2018-05-06T00:07:57.977Z,79.75
2018-05-06T00:08:57.916Z,79.85
2018-05-06T00:09:57.854Z,80.52
2018-05-06T00:10:57.794Z,80.52
2018-05-06T00:11:57.731Z,79.91
2018-05-06T00:12:57.670Z,80.52
2018-05-06T00:13:57.609Z,80.43
2018-05-06T00:14:57.548Z,80.52
2018-05-06T00:15:57.485Z,80.24
2018-05-06T00:16:57.425Z,80.52
2018-05-06T00:17:57.366Z,80.43
2018-05-06T00:18:57.303Z,80.14
2018-05-06T00:19:57.240Z,80.33
2018-05-06T00:20:57.180Z,80.77
2018-05-06T00:21:57.124Z,80.48
2018-05-06T00:22:57.086Z,80.58
2018-05-06T00:23:56.994Z,81.05
2018-05-06T00:24:56.933Z,80.77
2018-05-06T00:25:56.872Z,80.87
2018-05-06T00:26:56.812Z,80.67
2018-05-06T00:27:56.751Z,80.67
2018-05-06T00:28:56.691Z,80.77
2018-05-06T00:29:56.628Z,81.05
2018-05-06T00:30:56.567Z,80.58
2018-05-06T00:31:56.505Z,80.96
2018-05-06T00:32:56.444Z,81.05
2018-05-06T00:33:56.383Z,80.77
2018-05-06T00:34:56.320Z,80.67
2018-05-06T00:35:56.260Z,80.96
2018-05-06T00:36:56.196Z,80.87
2018-05-06T00:37:56.140Z,80.96
2018-05-06T00:38:56.074Z,80.67
2018-05-06T00:39:56.013Z,80.48
2018-05-06T00:40:55.949Z,80.87
2018-05-06T00:41:55.890Z,80.38
2018-05-06T00:42:55.832Z,80.38
2018-05-06T00:43:55.764Z,80.48
2018-05-06T00:44:55.705Z,80.19
2018-05-06T00:45:55.642Z,80.87
2018-05-06T00:46:55.583Z,80.87
2018-05-06T00:47:55.522Z,80.48
2018-05-06T00:48:55.458Z,80.58
2018-05-06T00:49:55.397Z,80.19
2018-05-06T00:50:55.339Z,80.48
2018-05-06T00:51:55.274Z,80.29
2018-05-06T00:52:55.211Z,80.48
2018-05-06T00:53:55.152Z,80.29
2018-05-06T00:54:55.092Z,80.19
2018-05-06T00:55:55.028Z,80.77
2018-05-06T00:56:54.970Z,81.05
2018-05-06T00:57:54.906Z,80.38
2018-05-06T00:58:54.846Z,81.05
2018-05-06T00:59:54.783Z,80.96
2018-05-06T01:00:54.723Z,80.87
2018-05-06T01:01:54.659Z,80.87
2018-05-06T01:02:54.599Z,80.87
2018-05-06T01:03:54.535Z,80.87
2018-05-06T01:04:54.475Z,80.67
2018-05-06T01:05:54.413Z,80.87
2018-05-06T01:06:54.352Z,80.87
2018-05-06T01:07:54.290Z,80.48
2018-05-06T01:08:54.228Z,80.96
2018-05-06T01:09:54.167Z,80.77
2018-05-06T01:10:54.106Z,80.67
2018-05-06T01:11:54.046Z,80.10
2018-05-06T01:12:53.982Z,80.19
2018-05-06T01:13:53.921Z,80.63
2018-05-06T01:14:53.860Z,80.77
2018-05-06T01:15:53.799Z,80.54
2018-05-06T01:16:53.736Z,80.73
2018-05-06T01:17:53.673Z,81.02
2018-05-06T01:18:53.691Z,80.63
2018-05-06T01:19:53.554Z,80.44
2018-05-06T01:20:53.489Z,80.63
2018-05-06T01:21:53.460Z,81.02
2018-05-06T01:22:53.369Z,80.73
2018-05-06T01:23:53.307Z,80.82
2018-05-06T01:24:53.246Z,80.63
2018-05-06T01:25:53.185Z,80.73
2018-05-06T01:26:53.123Z,80.82
2018-05-06T01:27:53.061Z,81.30
2018-05-06T01:28:52.998Z,80.63
2018-05-06T01:29:52.944Z,80.82
2018-05-06T01:30:52.873Z,81.02
2018-05-06T01:31:52.811Z,80.63
2018-05-06T01:32:52.755Z,80.44
2018-05-06T01:33:52.691Z,80.16
2018-05-06T01:34:52.626Z,80.25
2018-05-06T01:35:52.566Z,80.35
2018-05-06T01:36:52.506Z,80.73
2018-05-06T01:37:52.443Z,80.30
2018-05-06T01:38:52.380Z,80.21
2018-05-06T01:39:52.319Z,78.68
2018-05-06T01:40:52.258Z,79.83
2018-05-06T01:41:52.199Z,78.78
2018-05-06T01:42:52.137Z,78.78
2018-05-06T01:43:52.073Z,78.68
2018-05-06T01:44:52.011Z,78.68
2018-05-06T01:45:51.949Z,78.20
2018-05-06T01:46:51.888Z,78.49
2018-05-06T01:47:51.825Z,78.68
2018-05-06T01:48:51.768Z,78.78
2018-05-06T01:49:51.704Z,78.30
2018-05-06T01:50:51.643Z,78.68
2018-05-06T01:51:51.577Z,78.78
2018-05-06T01:52:51.517Z,78.87
2018-05-06T01:53:51.456Z,78.78
2018-05-06T01:54:51.395Z,78.49
2018-05-06T01:55:51.331Z,78.30
2018-05-06T01:56:51.268Z,77.34
2018-05-06T01:57:51.207Z,77.44
2018-05-06T01:58:51.146Z,77.53
2018-05-06T01:59:51.082Z,77.63
2018-05-06T02:00:51.110Z,78.11
2018-05-06T02:01:50.960Z,77.72
2018-05-06T02:02:50.898Z,78.11
2018-05-06T02:03:50.842Z,78.78
2018-05-06T02:04:50.775Z,78.49
2018-05-06T02:05:50.714Z,78.39
2018-05-06T02:06:50.649Z,78.58
2018-05-06T02:07:50.588Z,78.49
2018-05-06T02:08:50.528Z,78.68
2018-05-06T02:09:50.465Z,78.87
2018-05-06T02:10:50.404Z,78.58
2018-05-06T02:11:50.340Z,78.97
2018-05-06T02:12:50.278Z,78.64
2018-05-06T02:13:50.221Z,78.64
2018-05-06T02:14:50.157Z,78.78
2018-05-06T02:15:50.098Z,78.68
2018-05-06T02:16:50.030Z,78.49
2018-05-06T02:17:49.972Z,78.68
2018-05-06T02:18:49.906Z,78.58
2018-05-06T02:19:49.844Z,78.87
2018-05-06T02:20:49.783Z,78.01
2018-05-06T02:21:49.723Z,78.78
2018-05-06T02:22:49.664Z,78.78
2018-05-06T02:23:49.601Z,78.78
2018-05-06T02:24:49.542Z,78.07
2018-05-06T02:25:49.473Z,78.78
2018-05-06T02:26:49.412Z,78.74
2018-05-06T02:27:49.348Z,79.31
2018-05-06T02:28:49.289Z,79.88
2018-05-06T02:29:49.226Z,79.98
2018-05-06T02:30:49.172Z,79.79
2018-05-06T02:31:49.100Z,78.74
2018-05-06T02:32:49.041Z,79.12
2018-05-06T02:33:48.978Z,79.31
2018-05-06T02:34:48.912Z,79.02
2018-05-06T02:35:48.860Z,79.12
2018-05-06T02:36:48.792Z,79.31
2018-05-06T02:37:48.730Z,78.93
2018-05-06T02:38:48.673Z,79.41
2018-05-06T02:39:48.606Z,79.22
2018-05-06T02:40:48.544Z,79.02
2018-05-06T02:41:48.491Z,78.55
2018-05-06T02:42:48.420Z,78.55
2018-05-06T02:43:48.362Z,78.74
2018-05-06T02:44:48.294Z,78.74
2018-05-06T02:45:48.235Z,79.08
2018-05-06T02:46:48.172Z,79.02
2018-05-06T02:47:48.109Z,79.56
2018-05-06T02:48:48.047Z,79.36
2018-05-06T02:49:47.985Z,78.99
2018-05-06T02:50:47.923Z,79.75
2018-05-06T02:51:47.865Z,80.32
2018-05-06T02:52:47.799Z,80.41
2018-05-06T02:53:47.739Z,79.94
2018-05-06T02:54:47.683Z,79.56
2018-05-06T02:55:47.612Z,79.17
2018-05-06T02:56:47.547Z,79.27
2018-05-06T02:57:47.489Z,79.65
2018-05-06T02:58:47.424Z,78.70
2018-05-06T02:59:47.363Z,78.60
2018-05-06T03:00:47.301Z,77.74
2018-05-06T03:01:47.238Z,77.36
2018-05-06T03:02:47.177Z,77.26
2018-05-06T03:03:47.116Z,76.79
2018-05-06T03:04:47.052Z,76.88
2018-05-06T03:05:46.989Z,76.60
2018-05-06T03:06:46.930Z,75.45
2018-05-06T03:07:46.863Z,74.59
2018-05-06T03:08:46.803Z,75.07
2018-05-06T03:09:46.740Z,74.34
2018-05-06T03:10:46.680Z,74.05
2018-05-06T03:11:46.614Z,73.35
2018-05-06T03:12:46.555Z,73.29
2018-05-06T03:13:46.492Z,73.00
2018-05-06T03:14:46.430Z,72.11
2018-05-06T03:15:46.368Z,72.62
2018-05-06T03:16:46.303Z,72.53
2018-05-06T03:17:46.241Z,71.95
2018-05-06T03:18:46.179Z,72.72
2018-05-06T03:19:46.116Z,72.43
2018-05-06T03:20:46.053Z,71.86
2018-05-06T03:21:45.991Z,71.72
2018-05-06T03:22:45.929Z,71.82
2018-05-06T03:23:45.867Z,71.92
2018-05-06T03:24:45.802Z,71.72
2018-05-06T03:25:45.741Z,71.34
2018-05-06T03:26:45.680Z,71.15
2018-05-06T03:27:45.615Z,70.67
2018-05-06T03:28:45.555Z,70.39
2018-05-06T03:29:45.494Z,70.10
2018-05-06T03:30:45.430Z,69.72
2018-05-06T03:31:45.366Z,70.39
2018-05-06T03:32:45.309Z,70.39
2018-05-06T03:33:45.243Z,70.20
2018-05-06T03:34:45.181Z,69.05
2018-05-06T03:35:45.117Z,68.76
2018-05-06T03:36:45.056Z,68.57
2018-05-06T03:37:44.991Z,68.96
2018-05-06T03:38:44.936Z,68.86
2018-05-06T03:39:44.872Z,68.48
2018-05-06T03:40:44.805Z,68.48
2018-05-06T03:41:44.742Z,68.57
2018-05-06T03:42:44.680Z,68.38
2018-05-06T03:43:44.616Z,68.19
2018-05-06T03:44:44.553Z,68.76
2018-05-06T03:45:44.492Z,68.00
2018-05-06T03:46:44.429Z,68.19
2018-05-06T03:47:44.367Z,68.48
2018-05-06T03:48:44.303Z,68.29
2018-05-06T03:49:44.243Z,68.29
2018-05-06T03:50:44.180Z,68.48
2018-05-06T03:51:44.113Z,67.91
2018-05-06T03:52:44.056Z,68.38
2018-05-06T03:53:43.991Z,68.86
2018-05-06T03:54:43.930Z,68.86
2018-05-06T03:55:43.866Z,68.38
2018-05-06T03:56:43.813Z,68.57
2018-05-06T03:57:43.738Z,68.92
2018-05-06T03:58:43.679Z,69.02
2018-05-06T03:59:43.614Z,69.40
2018-05-06T04:00:43.565Z,69.34
2018-05-06T04:01:43.488Z,69.24
2018-05-06T04:02:43.428Z,68.96
2018-05-06T04:03:43.361Z,68.67
2018-05-06T04:04:43.299Z,68.35
2018-05-06T04:05:43.259Z,68.73
2018-05-06T04:06:43.175Z,69.31
2018-05-06T04:07:43.110Z,69.02
2018-05-06T04:08:43.047Z,69.11
2018-05-06T04:09:42.994Z,69.11
2018-05-06T04:10:42.928Z,69.02
2018-05-06T04:11:42.860Z,68.82
2018-05-06T04:12:42.796Z,68.44
2018-05-06T04:13:42.734Z,68.63
2018-05-06T04:14:42.672Z,68.35
2018-05-06T04:15:42.615Z,68.92
2018-05-06T04:16:42.546Z,68.35
2018-05-06T04:17:42.487Z,67.68
2018-05-06T04:18:42.421Z,67.68
2018-05-06T04:19:42.361Z,68.06
2018-05-06T04:20:42.293Z,67.68
2018-05-06T04:21:42.232Z,68.35
2018-05-06T04:22:42.167Z,67.40
2018-05-06T04:23:42.105Z,67.43
2018-05-06T04:24:42.044Z,67.30
2018-05-06T04:25:41.981Z,67.01
2018-05-06T04:26:41.918Z,67.11
2018-05-06T04:27:41.854Z,67.24
2018-05-06T04:28:41.791Z,67.21
2018-05-06T04:29:41.729Z,67.77
2018-05-06T04:30:41.666Z,67.58
2018-05-06T04:31:41.603Z,67.58
2018-05-06T04:32:41.539Z,67.24
2018-05-06T04:33:41.476Z,68.06
2018-05-06T04:34:41.413Z,68.19
2018-05-06T04:35:41.364Z,67.43
2018-05-06T04:36:41.295Z,66.85
2018-05-06T04:37:41.224Z,66.56
2018-05-06T04:38:41.169Z,66.15
2018-05-06T04:39:41.102Z,66.15
2018-05-06T04:40:41.035Z,66.53
2018-05-06T04:41:40.974Z,66.06
2018-05-06T04:42:40.917Z,65.87
2018-05-06T04:43:40.847Z,66.09
2018-05-06T04:44:40.784Z,65.52
2018-05-06T04:45:40.727Z,65.67
2018-05-06T04:46:40.658Z,65.30
2018-05-06T04:47:40.595Z,65.77
2018-05-06T04:48:40.533Z,65.20
2018-05-06T04:49:40.469Z,65.61
2018-05-06T04:50:40.410Z,65.04
2018-05-06T04:51:40.340Z,65.90
2018-05-06T04:52:40.286Z,65.23
2018-05-06T04:53:40.218Z,65.33
2018-05-06T04:54:40.156Z,65.04
2018-05-06T04:55:40.092Z,64.65
2018-05-06T04:56:40.028Z,64.75
2018-05-06T04:57:39.969Z,64.65
2018-05-06T04:58:39.904Z,64.37
2018-05-06T04:59:39.839Z,64.15
2018-05-06T05:00:39.781Z,64.72
2018-05-06T05:01:39.716Z,64.94
2018-05-06T05:02:39.652Z,64.62
2018-05-06T05:03:39.589Z,64.91
2018-05-06T05:04:39.525Z,64.53
2018-05-06T05:05:39.463Z,64.05
2018-05-06T05:06:39.401Z,64.28
2018-05-06T05:07:39.338Z,63.60
2018-05-06T05:08:39.275Z,64.18
2018-05-06T05:09:39.247Z,63.99
2018-05-06T05:10:39.148Z,64.18
2018-05-06T05:11:39.087Z,64.28
2018-05-06T05:12:39.023Z,64.09
2018-05-06T05:13:38.962Z,64.18
2018-05-06T05:14:38.898Z,63.80
2018-05-06T05:15:38.835Z,64.18
2018-05-06T05:16:38.771Z,64.75
2018-05-06T05:17:38.713Z,63.80
2018-05-06T05:18:38.647Z,64.09
2018-05-06T05:19:38.583Z,64.28
2018-05-06T05:20:38.520Z,63.32
2018-05-06T05:21:38.457Z,64.18
2018-05-06T05:22:38.395Z,64.75
2018-05-06T05:23:38.333Z,63.89
2018-05-06T05:24:38.269Z,64.18
2018-05-06T05:25:38.206Z,64.65
2018-05-06T05:26:38.144Z,64.18
2018-05-06T05:27:38.081Z,63.99
2018-05-06T05:28:38.019Z,64.22
2018-05-06T05:29:37.955Z,64.02
2018-05-06T05:30:37.896Z,64.22
2018-05-06T05:31:37.830Z,64.22
2018-05-06T05:32:37.769Z,64.02
2018-05-06T05:33:37.707Z,64.22
2018-05-06T05:34:37.642Z,64.12
2018-05-06T05:35:37.578Z,64.31
2018-05-06T05:36:37.515Z,64.40
2018-05-06T05:37:37.453Z,64.02
2018-05-06T05:38:37.395Z,64.12
2018-05-06T05:39:37.327Z,64.12
2018-05-06T05:40:37.268Z,64.31
2018-05-06T05:41:37.205Z,64.34
2018-05-06T05:42:37.142Z,64.25
2018-05-06T05:43:37.079Z,64.43
2018-05-06T05:44:37.015Z,64.53
2018-05-06T05:45:36.957Z,63.19
2018-05-06T05:46:36.891Z,63.67
2018-05-06T05:47:36.860Z,63.39
2018-05-06T05:48:36.770Z,63.10
2018-05-06T05:49:36.706Z,63.48
2018-05-06T05:50:36.640Z,63.10
2018-05-06T05:51:36.579Z,63.00
2018-05-06T05:52:36.515Z,62.90
2018-05-06T05:53:36.452Z,62.43
2018-05-06T05:54:36.392Z,62.90
2018-05-06T05:55:36.334Z,62.43
2018-05-06T05:56:36.266Z,62.81
2018-05-06T05:57:36.203Z,62.43
2018-05-06T05:58:36.141Z,62.65
2018-05-06T05:59:36.079Z,62.43
2018-05-06T06:00:36.022Z,62.74
2018-05-06T06:01:36.038Z,61.98
2018-05-06T06:02:35.892Z,62.46
2018-05-06T06:03:35.834Z,62.46
2018-05-06T06:04:35.773Z,61.88
2018-05-06T06:05:35.705Z,62.17
2018-05-06T06:06:35.642Z,62.37
2018-05-06T06:07:35.584Z,62.08
2018-05-06T06:08:35.517Z,62.37
2018-05-06T06:09:35.455Z,62.46
2018-05-06T06:10:35.395Z,62.46
2018-05-06T06:11:35.331Z,62.27
2018-05-06T06:12:35.268Z,62.55
2018-05-06T06:13:35.208Z,61.88
2018-05-06T06:14:35.152Z,62.46
2018-05-06T06:15:35.177Z,61.98
2018-05-06T06:16:35.023Z,62.08
2018-05-06T06:17:34.959Z,62.01
2018-05-06T06:18:34.902Z,62.11
2018-05-06T06:19:34.838Z,62.40
2018-05-06T06:20:34.787Z,62.30
2018-05-06T06:21:34.708Z,62.30
2018-05-06T06:22:34.657Z,61.72
2018-05-06T06:23:34.676Z,61.44
2018-05-06T06:24:34.532Z,61.05
2018-05-06T06:25:34.465Z,61.34
2018-05-06T06:26:34.400Z,61.34
2018-05-06T06:27:34.339Z,61.63
2018-05-06T06:28:34.275Z,61.54
2018-05-06T06:29:34.213Z,61.82
2018-05-06T06:30:34.155Z,61.44
2018-05-06T06:31:34.089Z,61.25
2018-05-06T06:32:34.027Z,60.96
2018-05-06T06:33:33.968Z,60.86
2018-05-06T06:34:33.904Z,61.05
2018-05-06T06:35:33.842Z,61.15
2018-05-06T06:36:33.779Z,60.77
2018-05-06T06:37:33.721Z,60.77
2018-05-06T06:38:33.656Z,61.34
2018-05-06T06:39:33.593Z,60.89
2018-05-06T06:40:33.531Z,61.18
2018-05-06T06:41:33.468Z,61.47
2018-05-06T06:42:33.409Z,60.89
2018-05-06T06:43:33.347Z,60.70
2018-05-06T06:44:33.319Z,60.89
2018-05-06T06:45:33.222Z,60.80
2018-05-06T06:46:33.161Z,61.28
2018-05-06T06:47:33.101Z,61.37
2018-05-06T06:48:33.037Z,60.70
2018-05-06T06:49:32.985Z,60.99
2018-05-06T06:50:32.930Z,60.13
2018-05-06T06:51:32.853Z,60.22
2018-05-06T06:52:32.789Z,60.13
2018-05-06T06:53:32.728Z,59.94
2018-05-06T06:54:32.668Z,60.13
2018-05-06T06:55:32.606Z,59.97
2018-05-06T06:56:32.544Z,60.06
2018-05-06T06:57:32.481Z,59.97
2018-05-06T06:58:32.421Z,59.39
2018-05-06T06:59:32.358Z,59.39
2018-05-06T07:00:32.295Z,59.20
2018-05-06T07:01:32.234Z,58.91
2018-05-06T07:02:32.178Z,59.11
2018-05-06T07:03:32.114Z,58.81
2018-05-06T07:04:32.054Z,58.62
2018-05-06T07:05:31.988Z,58.94
2018-05-06T07:06:31.929Z,58.27
2018-05-06T07:07:31.865Z,58.65
2018-05-06T07:08:31.803Z,57.98
2018-05-06T07:09:31.741Z,58.08
2018-05-06T07:10:31.681Z,57.70
2018-05-06T07:11:31.620Z,57.21
2018-05-06T07:12:31.560Z,56.54
2018-05-06T07:13:31.497Z,56.74
2018-05-06T07:14:31.435Z,55.68
2018-05-06T07:15:31.374Z,55.78
2018-05-06T07:16:31.312Z,55.71
2018-05-06T07:17:31.251Z,54.82
2018-05-06T07:18:31.198Z,55.23
2018-05-06T07:19:31.130Z,55.33
2018-05-06T07:20:31.068Z,55.80
2018-05-06T07:21:31.007Z,55.71
2018-05-06T07:22:30.947Z,55.42
2018-05-06T07:23:30.883Z,55.33
2018-05-06T07:24:30.824Z,55.13
2018-05-06T07:25:30.762Z,54.94
2018-05-06T07:26:30.701Z,54.08
2018-05-06T07:27:30.640Z,53.99
2018-05-06T07:28:30.578Z,54.08
2018-05-06T07:29:30.520Z,53.82
2018-05-06T07:30:30.457Z,53.34
2018-05-06T07:31:30.394Z,53.82
2018-05-06T07:32:30.336Z,53.53
2018-05-06T07:33:30.275Z,53.05
2018-05-06T07:34:30.228Z,52.19
2018-05-06T07:35:30.152Z,51.83
2018-05-06T07:36:30.091Z,52.22
2018-05-06T07:37:30.031Z,52.02
2018-05-06T07:38:29.970Z,51.83
2018-05-06T07:39:29.909Z,50.96
2018-05-06T07:40:29.854Z,50.58
2018-05-06T07:41:29.792Z,50.78
2018-05-06T07:42:29.746Z,50.87
2018-05-06T07:43:29.667Z,50.87
2018-05-06T07:44:29.606Z,50.58
2018-05-06T07:45:29.545Z,50.29
2018-05-06T07:46:29.485Z,50.03
2018-05-06T07:47:29.425Z,50.61
2018-05-06T07:48:29.363Z,50.70
2018-05-06T07:49:29.304Z,50.13
2018-05-06T07:50:29.244Z,50.42
2018-05-06T07:51:29.182Z,50.90
2018-05-06T07:52:29.122Z,50.42
2018-05-06T07:53:29.063Z,50.42
2018-05-06T07:54:29.003Z,50.13
2018-05-06T07:55:28.941Z,50.13
2018-05-06T07:56:28.883Z,48.59
2018-05-06T07:57:28.823Z,49.07
2018-05-06T07:58:28.765Z,49.46
2018-05-06T07:59:28.701Z,48.90
2018-05-06T08:00:28.641Z,48.71
2018-05-06T08:01:28.582Z,48.43
2018-05-06T08:02:28.523Z,48.33
2018-05-06T08:03:28.466Z,48.43
2018-05-06T08:04:28.403Z,48.33
2018-05-06T08:05:28.345Z,47.85
2018-05-06T08:06:28.283Z,47.97
2018-05-06T08:07:28.224Z,48.07
2018-05-06T08:08:28.166Z,48.25
2018-05-06T08:09:28.105Z,48.16
2018-05-06T08:10:28.046Z,47.87
2018-05-06T08:11:27.984Z,48.16
2018-05-06T08:12:27.923Z,47.97
2018-05-06T08:13:27.865Z,48.16
2018-05-06T08:14:27.804Z,47.77
2018-05-06T08:15:27.745Z,48.25
2018-05-06T08:16:27.823Z,48.16
2018-05-06T08:17:27.625Z,48.83
2018-05-06T08:18:27.567Z,48.25
2018-05-06T08:19:27.509Z,48.45
2018-05-06T08:20:27.446Z,48.54
2018-05-06T08:21:27.395Z,48.25
2018-05-06T08:22:27.329Z,48.54
2018-05-06T08:23:27.268Z,48.64
2018-05-06T08:24:27.209Z,48.85
2018-05-06T08:25:27.150Z,49.22
2018-05-06T08:26:27.091Z,49.41
2018-05-06T08:27:27.031Z,49.41
2018-05-06T08:28:26.970Z,49.69
2018-05-06T08:29:26.928Z,49.69
2018-05-06T08:30:26.867Z,49.63
2018-05-06T08:31:26.791Z,49.89
2018-05-06T08:32:26.734Z,49.15
2018-05-06T08:33:26.674Z,49.53
2018-05-06T08:34:26.615Z,49.82
2018-05-06T08:35:26.555Z,49.43
2018-05-06T08:36:26.496Z,49.72
2018-05-06T08:37:26.438Z,49.24
2018-05-06T08:38:26.380Z,49.15
2018-05-06T08:39:26.327Z,48.95
2018-05-06T08:40:26.261Z,48.85
2018-05-06T08:41:26.205Z,48.95
2018-05-06T08:42:26.140Z,48.76
2018-05-06T08:43:26.082Z,48.49
2018-05-06T08:44:26.027Z,48.59
2018-05-06T08:45:25.964Z,48.69
2018-05-06T08:46:25.908Z,48.76
2018-05-06T08:47:25.846Z,48.76
2018-05-06T08:48:25.791Z,48.57
2018-05-06T08:49:25.728Z,48.97
2018-05-06T08:50:25.669Z,48.69
2018-05-06T08:51:25.613Z,49.17
2018-05-06T08:52:25.549Z,48.97
2018-05-06T08:53:25.493Z,48.40
2018-05-06T08:54:25.466Z,48.49
2018-05-06T08:55:25.375Z,48.40
2018-05-06T08:56:25.317Z,48.11
2018-05-06T08:57:25.258Z,48.30
2018-05-06T08:58:25.198Z,48.13
2018-05-06T08:59:25.140Z,47.17
2018-05-06T09:00:25.079Z,47.08
2018-05-06T09:01:25.023Z,47.85
2018-05-06T09:02:24.965Z,48.23
2018-05-06T09:03:24.905Z,47.17
2018-05-06T09:04:24.846Z,46.98
2018-05-06T09:05:24.788Z,47.08
2018-05-06T09:06:24.729Z,46.88
2018-05-06T09:07:24.671Z,46.40
2018-05-06T09:08:24.613Z,46.59
2018-05-06T09:09:24.554Z,46.78
2018-05-06T09:10:24.495Z,46.62
2018-05-06T09:11:24.441Z,46.81
2018-05-06T09:12:24.381Z,46.62
2018-05-06T09:13:24.320Z,46.52
2018-05-06T09:14:24.261Z,45.48
2018-05-06T09:15:24.203Z,45.58
2018-05-06T09:16:24.147Z,45.68
2018-05-06T09:17:24.090Z,45.20
2018-05-06T09:18:24.029Z,44.25
2018-05-06T09:19:23.971Z,44.45
2018-05-06T09:20:23.911Z,44.15
2018-05-06T09:21:23.853Z,44.35
2018-05-06T09:22:23.796Z,44.54
2018-05-06T09:23:23.737Z,44.25
2018-05-06T09:24:23.682Z,43.77
2018-05-06T09:25:23.636Z,43.96
2018-05-06T09:26:23.567Z,43.48
2018-05-06T09:27:23.507Z,43.50
2018-05-06T09:28:23.449Z,42.73
2018-05-06T09:29:23.392Z,42.44
2018-05-06T09:30:23.333Z,42.25
2018-05-06T09:31:23.276Z,41.78
2018-05-06T09:32:23.269Z,41.69
2018-05-06T09:33:23.162Z,41.78
2018-05-06T09:34:23.104Z,41.69
2018-05-06T09:35:23.044Z,41.40
2018-05-06T09:36:22.985Z,42.18
2018-05-06T09:37:22.950Z,41.11
2018-05-06T09:38:22.873Z,40.82
2018-05-06T09:39:22.830Z,40.36
2018-05-06T09:40:22.759Z,40.09
2018-05-06T09:41:22.701Z,40.09
2018-05-06T09:42:22.648Z,40.20
2018-05-06T09:43:22.591Z,39.14
2018-05-06T09:44:22.529Z,38.85
2018-05-06T09:45:22.473Z,38.48
2018-05-06T09:46:22.417Z,38.31
2018-05-06T09:47:22.362Z,36.60
2018-05-06T09:48:22.309Z,34.97
2018-05-06T09:49:22.328Z,33.92
2018-05-06T09:50:22.197Z,32.57
2018-05-06T09:51:22.135Z,32.67
2018-05-06T09:52:22.086Z,31.82
2018-05-06T09:53:22.026Z,31.07
2018-05-06T09:54:21.970Z,30.59
2018-05-06T09:55:21.914Z,30.79
2018-05-06T09:56:21.862Z,30.40
2018-05-06T09:57:21.809Z,30.50
2018-05-06T09:58:21.754Z,30.50
2018-05-06T09:59:21.698Z,30.21
2018-05-06T10:00:21.696Z,30.19
2018-05-06T10:01:21.593Z,29.82
2018-05-06T10:02:21.539Z,30.02
2018-05-06T10:03:21.486Z,29.16
2018-05-06T10:04:21.433Z,29.05
2018-05-06T10:05:21.381Z,28.96
2018-05-06T10:06:21.329Z,28.86
2018-05-06T10:07:21.278Z,28.66
2018-05-06T10:08:21.309Z,28.76
2018-05-06T10:09:21.175Z,28.49
2018-05-06T10:10:21.125Z,29.04
2018-05-06T10:11:21.072Z,30.29
2018-05-06T10:12:21.020Z,29.82
2018-05-06T10:13:20.973Z,30.30
2018-05-06T10:14:20.922Z,29.91
2018-05-06T10:15:20.868Z,29.24
2018-05-06T10:16:20.820Z,29.14
2018-05-06T10:17:20.768Z,28.76
2018-05-06T10:18:20.718Z,28.28
2018-05-06T10:19:20.667Z,28.08
2018-05-06T10:20:20.615Z,28.19
2018-05-06T10:21:20.567Z,28.11
2018-05-06T10:22:20.594Z,27.82
2018-05-06T10:23:20.466Z,28.20
2018-05-06T10:24:20.414Z,28.02
2018-05-06T10:25:20.372Z,27.79
2018-05-06T10:26:20.330Z,28.75
2018-05-06T10:27:20.266Z,29.41
2018-05-06T10:28:20.219Z,29.12
2018-05-06T10:29:20.166Z,29.24
2018-05-06T10:30:20.119Z,29.14
2018-05-06T10:31:20.065Z,28.86
2018-05-06T10:32:20.016Z,28.94
2018-05-06T10:33:19.966Z,29.04
2018-05-06T10:34:19.917Z,28.85
2018-05-06T10:35:19.865Z,28.66
2018-05-06T10:36:19.818Z,28.57
2018-05-06T10:37:19.767Z,28.28
2018-05-06T10:38:19.718Z,28.45
2018-05-06T10:39:19.669Z,28.57
2018-05-06T10:40:19.616Z,28.55
2018-05-06T10:41:19.568Z,28.86
2018-05-06T10:42:19.567Z,28.86
2018-05-06T10:43:19.465Z,28.36
2018-05-06T10:44:19.435Z,29.04
2018-05-06T10:45:19.368Z,28.54
2018-05-06T10:46:19.313Z,28.93
2018-05-06T10:47:19.266Z,28.54
2018-05-06T10:48:19.215Z,28.94
2018-05-06T10:49:19.379Z,28.45
2018-05-06T10:50:19.140Z,28.93
2018-05-06T10:51:19.062Z,29.12
2018-05-06T10:52:19.011Z,28.74
2018-05-06T10:53:18.967Z,28.91
2018-05-06T10:54:18.913Z,28.81
2018-05-06T10:55:18.860Z,29.11
2018-05-06T10:56:18.810Z,29.21
2018-05-06T10:57:18.759Z,29.19
2018-05-06T10:58:18.710Z,30.24
2018-05-06T10:59:18.658Z,30.15
2018-05-06T11:00:18.607Z,30.54
2018-05-06T11:01:18.563Z,30.81
2018-05-06T11:02:18.505Z,30.05
2018-05-06T11:03:18.452Z,29.74
2018-05-06T11:04:18.401Z,29.94
2018-05-06T11:05:18.350Z,30.23
2018-05-06T11:06:18.298Z,30.52
2018-05-06T11:07:18.245Z,30.05
2018-05-06T11:08:18.196Z,29.95
2018-05-06T11:09:18.143Z,30.05
2018-05-06T11:10:18.181Z,29.84
2018-05-06T11:11:18.040Z,30.51
2018-05-06T11:12:17.988Z,31.26
2018-05-06T11:13:17.935Z,32.12
2018-05-06T11:14:17.888Z,32.29
2018-05-06T11:15:17.831Z,33.44
2018-05-06T11:16:17.780Z,33.73
2018-05-06T11:17:17.725Z,35.08
2018-05-06T11:18:17.672Z,34.79
2018-05-06T11:19:17.620Z,33.92
2018-05-06T11:20:17.567Z,34.89
2018-05-06T11:21:17.511Z,34.99
2018-05-06T11:22:17.462Z,34.60
2018-05-06T11:23:17.405Z,34.60
2018-05-06T11:24:17.351Z,34.79
2018-05-06T11:25:17.297Z,34.60
2018-05-06T11:26:17.324Z,34.79
2018-05-06T11:27:17.189Z,34.87
2018-05-06T11:28:17.133Z,35.16
2018-05-06T11:29:17.078Z,35.84
2018-05-06T11:30:17.025Z,35.84
2018-05-06T11:31:16.970Z,36.22
2018-05-06T11:32:16.914Z,35.66
2018-05-06T11:33:16.873Z,36.15
2018-05-06T11:34:16.806Z,35.45
2018-05-06T11:35:16.748Z,35.45
2018-05-06T11:36:16.692Z,36.03
2018-05-06T11:37:16.638Z,35.26
2018-05-06T11:38:16.582Z,35.64
2018-05-06T11:39:16.536Z,35.36
2018-05-06T11:40:16.472Z,34.97
2018-05-06T11:41:16.418Z,35.24
2018-05-06T11:42:16.361Z,36.79
2018-05-06T11:43:16.304Z,36.80
2018-05-06T11:44:16.249Z,36.03
2018-05-06T11:45:16.194Z,34.86
2018-05-06T11:46:16.138Z,34.66
2018-05-06T11:47:16.082Z,35.24
2018-05-06T11:48:16.027Z,35.92
2018-05-06T11:49:15.969Z,36.69
2018-05-06T11:50:15.915Z,36.01
2018-05-06T11:51:15.857Z,36.11
2018-05-06T11:52:15.800Z,36.11
2018-05-06T11:53:15.743Z,36.01
2018-05-06T11:54:15.688Z,35.34
2018-05-06T11:55:15.631Z,35.92
2018-05-06T11:56:15.644Z,35.24
2018-05-06T11:57:15.519Z,35.72
2018-05-06T11:58:15.463Z,35.64
2018-05-06T11:59:15.406Z,35.63
2018-05-06T12:00:15.348Z,35.82
2018-05-06T12:01:15.293Z,36.21
2018-05-06T12:02:15.298Z,36.21
2018-05-06T12:03:15.178Z,35.82
2018-05-06T12:04:15.124Z,36.21
2018-05-06T12:05:15.073Z,36.50
2018-05-06T12:06:15.011Z,35.63
2018-05-06T12:07:14.954Z,35.92
2018-05-06T12:08:14.898Z,36.21
2018-05-06T12:09:14.842Z,35.14
2018-05-06T12:10:14.786Z,35.14
2018-05-06T12:11:14.727Z,35.24
2018-05-06T12:12:14.671Z,35.53
2018-05-06T12:13:14.613Z,35.63
2018-05-06T12:14:14.558Z,36.11
2018-05-06T12:15:14.500Z,35.24
2018-05-06T12:16:14.444Z,34.47
2018-05-06T12:17:14.388Z,34.56
2018-05-06T12:18:14.331Z,35.05
2018-05-06T12:19:14.276Z,35.14
2018-05-06T12:20:14.218Z,35.03
2018-05-06T12:21:14.162Z,34.74
2018-05-06T12:22:14.105Z,34.95
2018-05-06T12:23:14.049Z,35.05
2018-05-06T12:24:14.011Z,34.56
2018-05-06T12:25:13.939Z,35.05
2018-05-06T12:26:13.876Z,35.24
2018-05-06T12:27:13.817Z,36.01
2018-05-06T12:28:13.765Z,34.95
2018-05-06T12:29:13.707Z,35.44
2018-05-06T12:30:13.655Z,35.05
2018-05-06T12:31:13.600Z,35.05
2018-05-06T12:32:13.557Z,34.76
2018-05-06T12:33:13.482Z,34.66
2018-05-06T12:34:13.427Z,34.48
2018-05-06T12:35:13.369Z,34.29
2018-05-06T12:36:13.313Z,33.81
2018-05-06T12:37:13.255Z,33.81
2018-05-06T12:38:13.199Z,34.78
2018-05-06T12:39:13.142Z,34.28
2018-05-06T12:40:13.087Z,34.08
2018-05-06T12:41:13.030Z,35.14
2018-05-06T12:42:12.972Z,34.39
2018-05-06T12:43:12.931Z,34.58
2018-05-06T12:44:12.859Z,33.89
2018-05-06T12:45:12.807Z,34.39
2018-05-06T12:46:12.745Z,34.10
2018-05-06T12:47:12.689Z,33.91
2018-05-06T12:48:12.637Z,34.68
2018-05-06T12:49:12.574Z,34.48
2018-05-06T12:50:12.519Z,34.58
2018-05-06T12:51:12.461Z,33.73
2018-05-06T12:52:12.406Z,33.91